Time;durP1;ratioP1;P1;durP2;ratioP2;P2;SDS_P1;SDS_P2;PMS_P1;PMS_P2;Temp;Humidity;BMP_temperature;BMP_pressure;BME280_temperature;BME280_humidity;BME280_pressure;Samples;Min_cycle;Max_cycle;Signal;HPM_P1;HPM_P2
2021/03/09 00:01:42;;;;;;;;;;;;;;;7.41;55.12;100861.25;5093509;28;20382;-83
2021/03/09 00:04:27;;;;;;;;;;;;;;;7.28;55.47;100860.03;5086355;28;19916;-84
2021/03/09 00:07:12;;;;;;;;;;;;;;;7.13;55.81;100863.75;5092710;28;19912;-83
2021/03/09 00:09:56;;;;;;;;;;;;;;;7.18;55.49;100865.56;5088331;28;19911;-81
2021/03/09 00:12:40;;;;;;;;;;;;;;;7.10;56.35;100866.22;5084952;28;19912;-82
2021/03/09 00:15:25;;;;;;;;;;;;;;;7.08;56.07;100857.59;5089970;28;19912;-83
2021/03/09 00:18:10;;;;;;;;;;;;;;;6.94;56.33;100862.06;5091791;28;19912;-81
2021/03/09 00:20:55;;;;;;;;;;;;;;;6.87;56.69;100862.41;5091011;28;19912;-82
2021/03/09 00:23:40;;;;;;;;;;;;;;;6.79;56.34;100854.94;5096684;28;19912;-83
2021/03/09 00:26:25;;;;;;;;;;;;;;;7.03;56.31;100861.16;5097073;28;19920;-82
2021/03/09 00:29:09;;;;;;;;;;;;;;;7.00;55.98;100860.94;5094413;28;19912;-81
2021/03/09 00:31:54;;;;;;;;;;;;;;;6.94;55.72;100862.06;5091692;28;19916;-81
2021/03/09 00:34:39;;;;;;;;;;;;;;;6.88;55.61;100864.03;5091254;28;20394;-81
2021/03/09 00:37:24;;;;;;;;;;;;;;;6.79;56.31;100861.16;5087180;28;20101;-80
2021/03/09 00:40:08;;;;;;;;;;;;;;;6.75;56.26;100865.53;5091942;28;19912;-81
2021/03/09 00:42:54;;;;;;;;;;;;;;;6.64;56.60;100863.19;5095260;28;20397;-80
2021/03/09 00:45:38;;;;;;;;;;;;;;;6.70;56.08;100857.47;5089849;28;20293;-81
2021/03/09 00:48:23;;;;;;;;;;;;;;;6.75;56.24;100862.81;5095099;28;20378;-82
2021/03/09 00:51:08;;;;;;;;;;;;;;;6.68;56.63;100853.44;5093693;28;19912;-82
2021/03/09 00:53:53;;;;;;;;;;;;;;;6.58;57.00;100856.22;5087875;28;19916;-83
2021/03/09 00:56:37;;;;;;;;;;;;;;;6.58;57.11;100858.94;5094122;28;19915;-80
2021/03/09 00:59:22;;;;;;;;;;;;;;;6.54;56.95;100857.91;5091790;28;20282;-81
2021/03/09 01:02:08;;;;;;;;;;;;;;;6.61;57.35;100852.94;5089560;28;19912;-82
2021/03/09 01:04:53;;;;;;;;;;;;;;;6.53;57.54;100854.38;5091972;28;20381;-81
2021/03/09 01:07:37;;;;;;;;;;;;;;;6.48;57.59;100848.22;5090624;28;19912;-80
2021/03/09 01:10:22;;;;;;;;;;;;;;;6.53;58.11;100857.09;5088020;28;20302;-80
2021/03/09 01:13:07;;;;;;;;;;;;;;;6.68;57.60;100845.31;5091616;28;19912;-81
2021/03/09 01:15:52;;;;;;;;;;;;;;;6.63;57.24;100850.78;5074095;28;19912;-80
2021/03/09 01:18:37;;;;;;;;;;;;;;;6.65;57.48;100844.00;5094447;28;19912;-81
2021/03/09 01:21:22;;;;;;;;;;;;;;;6.77;57.63;100847.09;5086691;28;19912;-79
2021/03/09 01:24:07;;;;;;;;;;;;;;;6.68;57.08;100832.63;5094102;28;19912;-80
2021/03/09 01:26:52;;;;;;;;;;;;;;;6.74;57.22;100836.06;5089075;28;19912;-80
2021/03/09 01:29:37;;;;;;;;;;;;;;;6.70;57.61;100832.34;5077790;28;19912;-80
2021/03/09 01:32:22;;;;;;;;;;;;;;;6.80;57.20;100830.34;5086326;28;19912;-81
2021/03/09 01:35:08;;;;;;;;;;;;;;;6.63;56.74;100827.25;5083763;28;19911;-79
2021/03/09 01:37:53;;;;;;;;;;;;;;;6.76;57.45;100820.38;5097089;28;19911;-82
2021/03/09 01:40:40;;;;;;;;;;;;;;;6.80;57.22;100818.72;5085150;28;20291;-83
2021/03/09 01:43:25;;;;;;;;;;;;;;;6.64;57.05;100818.06;5071877;28;19916;-83
2021/03/09 01:46:09;;;;;;;;;;;;;;;6.53;58.50;100808.47;5087536;28;19916;-82
2021/03/09 01:48:55;;;;;;;;;;;;;;;6.53;57.79;100813.88;5086003;28;19912;-80
2021/03/09 01:51:41;;;;;;;;;;;;;;;6.45;58.57;100811.75;5093217;28;19912;-82
2021/03/09 01:54:26;;;;;;;;;;;;;;;6.55;57.77;100803.59;5086652;28;19916;-80
2021/03/09 01:57:11;;;;;;;;;;;;;;;6.36;58.27;100798.09;5084596;28;19912;-80
2021/03/09 01:59:56;;;;;;;;;;;;;;;6.33;57.58;100795.97;5089468;28;19912;-81
2021/03/09 02:02:40;;;;;;;;;;;;;;;6.44;57.71;100793.97;5092497;28;19912;-80
2021/03/09 02:05:25;;;;;;;;;;;;;;;6.38;57.82;100784.31;5088426;28;20305;-82
2021/03/09 02:08:11;;;;;;;;;;;;;;;6.50;57.46;100784.72;5098959;28;19912;-81
2021/03/09 02:10:56;;;;;;;;;;;;;;;6.42;56.94;100777.22;5094444;28;19912;-80
2021/03/09 02:13:54;;;;;;;;;;;;;;;6.22;57.78;100775.53;5095409;28;19912;-82
2021/03/09 02:16:48;;;;;;;;;;;;;;;6.26;58.64;100775.78;5079520;28;19919;-80
2021/03/09 02:19:34;;;;;;;;;;;;;;;6.24;57.95;100773.38;5093760;28;19912;-82
2021/03/09 02:22:23;;;;;;;;;;;;;;;6.38;58.14;100776.19;5092523;28;20286;-81
2021/03/09 02:25:31;;;;;;;;;;;;;;;6.33;58.08;100768.16;5083497;28;20298;-80
2021/03/09 02:28:28;;;;;;;;;;;;;;;6.42;58.45;100767.25;5065219;28;19912;-80
2021/03/09 02:31:12;;;;;;;;;;;;;;;6.26;58.09;100770.38;5095462;28;19916;-80
2021/03/09 02:34:09;;;;;;;;;;;;;;;6.57;58.51;100766.28;5086498;28;19911;-80
2021/03/09 03:36:06;;;;;;;;;;;;;;;;;;;;;
2021/03/09 03:39:13;;;;;;;;;;;;;;;5.90;59.10;100746.41;4942187;29;19918;-86
2021/03/09 03:41:58;;;;;;;;;;;;;;;5.90;58.53;100745.59;4978026;28;19914;-85
2021/03/09 03:44:43;;;;;;;;;;;;;;;6.06;58.43;100743.56;4981669;28;19914;-87
2021/03/09 03:47:27;;;;;;;;;;;;;;;6.08;58.62;100744.09;4962638;28;19914;-86
2021/03/09 03:50:14;;;;;;;;;;;;;;;6.24;59.13;100738.28;4960864;28;19918;-86
2021/03/09 03:53:02;;;;;;;;;;;;;;;6.32;58.68;100729.53;4961884;28;19914;-87
2021/03/09 03:56:14;;;;;;;;;;;;;;;6.42;58.00;100739.44;4959223;28;19914;-85
2021/03/09 03:59:17;;;;;;;;;;;;;;;6.29;57.86;100740.94;4961470;28;19914;-85
2021/03/09 04:02:04;;;;;;;;;;;;;;;6.26;58.37;100733.38;4961747;28;19918;-85
2021/03/09 04:04:50;;;;;;;;;;;;;;;6.27;58.26;100735.00;4961896;28;19914;-84
2021/03/09 04:07:35;;;;;;;;;;;;;;;6.20;57.86;100737.22;4961841;28;19914;-85
2021/03/09 04:10:21;;;;;;;;;;;;;;;6.12;58.81;100737.84;4961684;29;19940;-87
2021/03/09 04:13:06;;;;;;;;;;;;;;;5.30;60.69;100730.66;4961539;28;20370;-86
2021/03/09 04:15:51;;;;;;;;;;;;;;;5.71;60.09;100736.56;4973227;28;19914;-85
2021/03/09 04:18:37;;;;;;;;;;;;;;;5.81;58.65;100729.19;4942093;29;19915;-86
2021/03/09 04:21:24;;;;;;;;;;;;;;;5.86;58.97;100729.16;4965169;28;20481;-85
2021/03/09 04:24:09;;;;;;;;;;;;;;;5.83;58.54;100729.72;4979009;28;19914;-85
2021/03/09 04:30:48;;;;;;;;;;;;;;;5.55;60.52;100736.69;4958660;28;19913;-85
2021/03/09 04:33:33;;;;;;;;;;;;;;;5.12;62.33;100742.91;4957690;28;19914;-84
2021/03/09 04:36:19;;;;;;;;;;;;;;;5.56;60.19;100734.78;4957488;29;19914;-85
2021/03/09 04:39:04;;;;;;;;;;;;;;;5.20;62.51;100736.09;4961261;28;19914;-86
2021/03/09 04:41:49;;;;;;;;;;;;;;;5.53;60.37;100732.66;4961021;29;19915;-86
2021/03/09 04:44:33;;;;;;;;;;;;;;;5.49;60.78;100736.97;4961129;29;19914;-86
2021/03/09 04:47:19;;;;;;;;;;;;;;;5.63;60.17;100732.59;4954677;28;19918;-85
2021/03/09 04:50:09;;;;;;;;;;;;;;;5.77;59.96;100733.53;4963710;28;19922;-85
2021/03/09 04:52:54;;;;;;;;;;;;;;;5.58;60.38;100725.34;4969119;28;19914;-86
2021/03/09 04:55:39;;;;;;;;;;;;;;;5.10;62.09;100731.59;4959004;29;19915;-87
2021/03/09 04:58:24;;;;;;;;;;;;;;;5.66;60.72;100734.72;4947038;29;20373;-87
2021/03/09 05:01:08;;;;;;;;;;;;;;;5.34;61.01;100732.50;4963419;28;19915;-88
2021/03/09 05:03:53;;;;;;;;;;;;;;;5.38;60.77;100732.78;4977833;28;19914;-88
2021/03/09 05:06:37;;;;;;;;;;;;;;;5.59;60.34;100729.63;4979865;28;19918;-87
2021/03/09 05:09:22;;;;;;;;;;;;;;;5.43;60.87;100735.44;4985142;28;20400;-87
2021/03/09 05:12:07;;;;;;;;;;;;;;;5.53;59.87;100736.16;4984671;28;19918;-86
2021/03/09 05:14:52;;;;;;;;;;;;;;;5.43;60.06;100735.44;4961830;28;20385;-87
2021/03/09 05:17:37;;;;;;;;;;;;;;;5.21;61.20;100732.34;4965338;28;19914;-84
2021/03/09 05:20:22;;;;;;;;;;;;;;;5.36;60.48;100735.75;4965815;28;19918;-85
2021/03/09 05:23:07;;;;;;;;;;;;;;;5.42;60.01;100741.91;4966609;28;19914;-86
2021/03/09 05:25:52;;;;;;;;;;;;;;;5.50;59.97;100735.91;4968857;28;19918;-87
2021/03/09 05:28:37;;;;;;;;;;;;;;;5.62;59.68;100739.06;4983628;28;19914;-85
2021/03/09 05:31:23;;;;;;;;;;;;;;;5.68;58.91;100737.13;4984122;28;19914;-82
2021/03/09 05:34:08;;;;;;;;;;;;;;;5.60;59.59;100742.03;4980286;28;19914;-85
2021/03/09 05:36:53;;;;;;;;;;;;;;;5.58;59.16;100744.22;4959004;28;19919;-84
2021/03/09 05:39:38;;;;;;;;;;;;;;;5.82;59.34;100743.50;4963952;28;19914;-85
2021/03/09 05:42:23;;;;;;;;;;;;;;;5.77;58.81;100736.25;4963636;28;20305;-84
2021/03/09 05:45:08;;;;;;;;;;;;;;;5.80;58.92;100746.47;4962643;28;20302;-83
2021/03/09 05:47:54;;;;;;;;;;;;;;;5.80;58.85;100746.47;4963801;28;19915;-84
2021/03/09 05:50:42;;;;;;;;;;;;;;;6.06;58.51;100752.47;4960792;28;20316;-83
2021/03/09 05:53:27;;;;;;;;;;;;;;;5.62;59.38;100749.84;4982922;28;19913;-86
2021/03/09 05:56:12;;;;;;;;;;;;;;;5.71;59.10;100752.75;4979066;28;19918;-84
2021/03/09 05:58:56;;;;;;;;;;;;;;;5.74;58.53;100752.19;4963991;28;19914;-84
2021/03/09 06:01:41;;;;;;;;;;;;;;;5.63;59.17;100756.88;4962959;28;19914;-84
2021/03/09 06:04:25;;;;;;;;;;;;;;;5.68;58.96;100756.03;4960185;28;19914;-82
2021/03/09 06:07:11;;;;;;;;;;;;;;;5.68;59.17;100759.53;4956743;28;19926;-85
2021/03/09 06:09:57;;;;;;;;;;;;;;;5.73;58.44;100756.78;4932124;29;19915;-85
2021/03/09 06:12:41;;;;;;;;;;;;;;;5.72;60.07;100754.34;4946575;28;19914;-85
2021/03/09 06:15:25;;;;;;;;;;;;;;;5.58;58.98;100756.91;4971534;28;20377;-83
2021/03/09 06:18:10;;;;;;;;;;;;;;;5.74;58.78;100758.38;4965971;28;20436;-83
2021/03/09 06:21:11;;;;;;;;;;;;;;;5.93;58.33;100756.66;4974301;28;19914;-84
2021/03/09 06:23:56;;;;;;;;;;;;;;;5.82;58.50;100757.78;4983446;28;19914;-81
2021/03/09 06:26:40;;;;;;;;;;;;;;;5.94;58.07;100758.22;4971936;28;19922;-84
2021/03/09 06:29:25;;;;;;;;;;;;;;;6.10;58.02;100756.22;4974301;28;20305;-86
2021/03/09 06:32:10;;;;;;;;;;;;;;;6.27;56.64;100763.88;4966644;28;19914;-85
2021/03/09 06:34:55;;;;;;;;;;;;;;;6.29;57.78;100762.53;4939822;29;19915;-85
2021/03/09 06:37:39;;;;;;;;;;;;;;;6.45;56.85;100760.44;4940992;29;19914;-85
2021/03/09 06:40:24;;;;;;;;;;;;;;;6.33;56.68;100763.56;4939363;29;20305;-86
2021/03/09 06:43:18;;;;;;;;;;;;;;;6.42;56.97;100761.03;4937123;29;19914;-83
2021/03/09 06:46:16;;;;;;;;;;;;;;;6.51;56.70;100767.41;4940128;29;19918;-86
2021/03/09 06:49:01;;;;;;;;;;;;;;;6.63;56.91;100765.13;4943905;29;19934;-86
2021/03/09 06:51:46;;;;;;;;;;;;;;;6.60;56.56;100768.41;4941484;29;19915;-85
2021/03/09 06:54:40;;;;;;;;;;;;;;;6.66;57.51;100769.13;4943033;29;19915;-86
2021/03/09 06:57:25;;;;;;;;;;;;;;;6.78;57.17;100777.66;4943074;29;19918;-86
2021/03/09 07:00:10;;;;;;;;;;;;;;;6.58;58.62;100781.41;4928839;29;19914;-84
2021/03/09 07:02:55;;;;;;;;;;;;;;;6.68;58.47;100789.38;4940075;29;19915;-84
2021/03/09 07:05:55;;;;;;;;;;;;;;;6.82;58.16;100779.47;4941849;29;19919;-82
2021/03/09 07:08:41;;;;;;;;;;;;;;;6.98;58.03;100790.91;4950895;28;19914;-82
2021/03/09 07:11:25;;;;;;;;;;;;;;;7.05;58.06;100793.28;4957375;28;19914;-81
2021/03/09 07:14:12;;;;;;;;;;;;;;;7.19;57.29;100792.28;4955807;28;19915;-84
2021/03/09 07:16:59;;;;;;;;;;;;;;;7.24;57.66;100786.00;4955820;28;19914;-86
2021/03/09 07:19:44;;;;;;;;;;;;;;;7.36;58.21;100788.28;4957835;28;20277;-84
2021/03/09 07:22:29;;;;;;;;;;;;;;;7.81;62.16;100784.09;4942576;29;20450;-78
2021/03/09 07:25:14;;;;;;;;;;;;;;;9.21;70.63;100788.00;4961967;28;19919;-78
2021/03/09 07:28:08;;;;;;;;;;;;;;;10.02;65.22;100794.25;4961380;28;19914;-78
2021/03/09 07:30:54;;;;;;;;;;;;;;;10.78;61.05;100786.06;4966908;28;19919;-78
2021/03/09 07:33:40;;;;;;;;;;;;;;;10.91;56.65;100796.84;4967771;28;19914;-79
2021/03/09 07:36:24;;;;;;;;;;;;;;;11.40;56.14;100783.97;4963396;28;19918;-78
2021/03/09 07:39:09;;;;;;;;;;;;;;;11.61;53.30;100793.13;4962844;28;20297;-78
2021/03/09 07:41:55;;;;;;;;;;;;;;;11.61;52.54;100790.38;4969561;28;19918;-78
2021/03/09 07:44:40;;;;;;;;;;;;;;;12.01;53.14;100793.75;4966706;28;20309;-78
2021/03/09 07:47:25;;;;;;;;;;;;;;;12.05;51.29;100793.91;4962382;28;19922;-78
2021/03/09 07:50:14;;;;;;;;;;;;;;;11.70;49.96;100790.38;4967010;28;19914;-79
2021/03/09 07:52:59;;;;;;;;;;;;;;;11.80;49.25;100793.63;4966101;28;19914;-79
2021/03/09 07:55:47;;;;;;;;;;;;;;;11.33;48.27;100789.06;4962167;28;19937;-78
2021/03/09 07:58:32;;;;;;;;;;;;;;;10.86;48.68;100786.09;4966959;28;19914;-79
2021/03/09 08:01:17;;;;;;;;;;;;;;;10.92;49.36;100792.19;4965090;28;19914;-79
2021/03/09 08:04:08;;;;;;;;;;;;;;;10.84;49.15;100784.78;4961529;28;19914;-79
2021/03/09 08:06:53;;;;;;;;;;;;;;;10.77;49.14;100787.19;4964027;28;19925;-79
2021/03/09 08:09:38;;;;;;;;;;;;;;;10.72;47.29;100783.47;4966962;28;19914;-78
2021/03/09 08:12:23;;;;;;;;;;;;;;;10.93;50.01;100785.63;4962664;28;19917;-79
2021/03/09 08:15:21;;;;;;;;;;;;;;;11.05;49.10;100783.91;4963273;28;19914;-79
2021/03/09 08:18:21;;;;;;;;;;;;;;;10.91;47.54;100783.22;4961953;28;19914;-79
2021/03/09 08:21:06;;;;;;;;;;;;;;;10.90;47.35;100786.25;4960660;28;19914;-79
2021/03/09 08:23:52;;;;;;;;;;;;;;;10.95;46.79;100788.84;4968284;28;19913;-77
2021/03/09 08:26:39;;;;;;;;;;;;;;;10.99;45.62;100781.66;4965378;28;20368;-79
2021/03/09 08:29:33;;;;;;;;;;;;;;;10.97;45.65;100786.63;4963482;28;19914;-79
2021/03/09 08:32:29;;;;;;;;;;;;;;;10.84;45.14;100782.88;4961784;28;20393;-79
2021/03/09 08:35:13;;;;;;;;;;;;;;;10.90;47.03;100781.63;4965303;28;19918;-79
2021/03/09 08:38:10;;;;;;;;;;;;;;;11.06;46.53;100779.28;4972878;28;19919;-79
2021/03/09 08:41:05;;;;;;;;;;;;;;;11.48;45.32;100789.41;4978080;23;20321;-79
2021/03/09 08:44:10;;;;;;;;;;;;;;;11.09;43.98;100774.00;4976106;28;19918;-79
2021/03/09 08:47:03;;;;;;;;;;;;;;;11.83;45.51;100778.56;4974270;28;19919;-79
2021/03/09 08:49:51;;;;;;;;;;;;;;;11.08;43.23;100766.94;4976793;28;19917;-79
2021/03/09 08:52:40;;;;;;;;;;;;;;;10.87;43.23;100773.31;4970564;28;19915;-79
2021/03/09 08:55:25;;;;;;;;;;;;;;;11.73;45.41;100776.16;4974306;28;19914;-79
2021/03/09 08:58:11;;;;;;;;;;;;;;;11.82;43.27;100772.31;4972469;28;19914;-80
2021/03/09 09:00:56;;;;;;;;;;;;;;;11.61;41.62;100763.16;4990077;28;19914;-80
2021/03/09 09:03:41;;;;;;;;;;;;;;;11.33;42.41;100762.66;4993201;28;19914;-80
2021/03/09 09:06:28;;;;;;;;;;;;;;;12.21;49.13;100759.56;4991039;28;19918;-80
2021/03/09 09:09:28;;;;;;;;;;;;;;;12.72;47.51;100753.94;4988214;28;19917;-80
2021/03/09 09:12:19;;;;;;;;;;;;;;;13.20;46.40;100758.19;4992397;28;20547;-80
2021/03/09 09:15:04;;;;;;;;;;;;;;;13.49;45.72;100747.22;4992130;28;19913;-79
2021/03/09 09:17:52;;;;;;;;;;;;;;;13.62;44.45;100748.06;4996171;28;20356;-79
2021/03/09 09:20:38;;;;;;;;;;;;;;;13.52;41.78;100746.53;4993522;28;19914;-79
2021/03/09 09:23:27;;;;;;;;;;;;;;;13.75;41.85;100740.72;4991347;28;19914;-79
2021/03/09 09:26:13;;;;;;;;;;;;;;;13.67;37.92;100739.66;4979597;28;19922;-79
2021/03/09 09:29:03;;;;;;;;;;;;;;;13.13;36.14;100741.53;4991906;28;20297;-79
2021/03/09 09:31:56;;;;;;;;;;;;;;;13.25;38.58;100747.06;4992313;28;20385;-79
2021/03/09 09:34:44;;;;;;;;;;;;;;;13.75;39.14;100741.53;4979545;28;19915;-79
2021/03/09 09:37:29;;;;;;;;;;;;;;;14.09;38.27;100746.66;4976704;28;19918;-80
2021/03/09 09:40:15;;;;;;;;;;;;;;;14.52;38.96;100743.47;4976399;28;19922;-80
2021/03/09 09:43:01;;;;;;;;;;;;;;;14.31;38.43;100737.25;4972828;28;19918;-79
2021/03/09 09:45:50;;;;;;;;;;;;;;;14.25;34.92;100738.59;4970453;28;19927;-79
2021/03/09 09:48:38;;;;;;;;;;;;;;;14.45;36.13;100726.78;4968136;29;19914;-79
2021/03/09 09:51:24;;;;;;;;;;;;;;;14.54;33.96;100732.16;4975503;28;19914;-79
2021/03/09 09:54:12;;;;;;;;;;;;;;;14.24;35.07;100731.53;4983066;28;19914;-80
2021/03/09 09:57:06;;;;;;;;;;;;;;;14.93;36.67;100736.16;4975262;28;19915;-79
2021/03/09 09:59:51;;;;;;;;;;;;;;;14.87;34.19;100732.06;4984361;28;19914;-80
2021/03/09 10:02:36;;;;;;;;;;;;;;;13.92;33.38;100715.94;4971607;28;19914;-80
2021/03/09 10:05:25;;;;;;;;;;;;;;;13.59;33.81;100719.47;4971745;28;20376;-79
2021/03/09 10:08:10;;;;;;;;;;;;;;;13.44;33.97;100722.03;4977438;28;19922;-80
2021/03/09 10:10:58;;;;;;;;;;;;;;;13.90;35.18;100718.22;4985254;28;19914;-81
2021/03/09 10:13:43;;;;;;;;;;;;;;;13.68;34.15;100709.25;4974930;28;19914;-80
2021/03/09 10:16:35;;;;;;;;;;;;;;;13.67;32.76;100704.13;4979956;28;19915;-80
2021/03/09 10:19:21;;;;;;;;;;;;;;;13.95;34.52;100709.81;4985434;28;19915;-80
2021/03/09 10:22:16;;;;;;;;;;;;;;;14.04;33.39;100705.84;4977647;28;19913;-79
2021/03/09 10:25:08;;;;;;;;;;;;;;;13.79;34.76;100698.72;4959464;28;19914;-80
2021/03/09 10:28:03;;;;;;;;;;;;;;;13.31;34.17;100704.75;4979859;28;19918;-80
2021/03/09 10:30:48;;;;;;;;;;;;;;;13.29;33.92;100704.31;4971420;28;19914;-80
2021/03/09 10:33:32;;;;;;;;;;;;;;;13.52;33.77;100694.63;4984596;28;19914;-80
2021/03/09 10:36:17;;;;;;;;;;;;;;;13.94;33.59;100697.28;4981189;28;19913;-80
2021/03/09 10:39:11;;;;;;;;;;;;;;;13.92;35.27;100700.34;4976157;28;19914;-80
2021/03/09 10:41:56;;;;;;;;;;;;;;;14.22;34.85;100698.22;4977367;28;19916;-80
2021/03/09 10:44:41;;;;;;;;;;;;;;;13.55;31.97;100693.16;4984471;28;19914;-79
2021/03/09 10:47:25;;;;;;;;;;;;;;;13.53;31.99;100687.22;4974150;28;19918;-82
2021/03/09 10:50:10;;;;;;;;;;;;;;;13.24;32.07;100679.94;4970164;28;20405;-82
2021/03/09 10:52:55;;;;;;;;;;;;;;;13.11;31.98;100686.41;4974444;28;19914;-80
2021/03/09 10:55:41;;;;;;;;;;;;;;;13.41;30.97;100685.22;4966325;28;20288;-80
2021/03/09 10:58:25;;;;;;;;;;;;;;;13.44;31.13;100679.13;4979795;28;19913;-80
2021/03/09 11:01:10;;;;;;;;;;;;;;;13.39;30.94;100676.59;4959242;28;20301;-79
2021/03/09 11:03:55;;;;;;;;;;;;;;;13.37;30.79;100669.84;4970680;28;19914;-78
2021/03/09 11:06:39;;;;;;;;;;;;;;;13.31;31.42;100671.97;4949416;28;20113;-79
2021/03/09 11:09:24;;;;;;;;;;;;;;;13.30;32.66;100664.94;4942936;29;19914;-79
2021/03/09 11:12:08;;;;;;;;;;;;;;;13.13;33.34;100665.06;4966465;28;19914;-79
2021/03/09 11:14:53;;;;;;;;;;;;;;;13.03;32.89;100665.44;4958249;28;19915;-80
2021/03/09 11:17:38;;;;;;;;;;;;;;;13.08;32.99;100665.25;4946700;28;19914;-79
2021/03/09 11:20:23;;;;;;;;;;;;;;;13.24;32.30;100663.56;4943144;28;19915;-79
2021/03/09 11:23:08;;;;;;;;;;;;;;;13.31;32.32;100663.78;4955607;28;19922;-79
2021/03/09 11:25:53;;;;;;;;;;;;;;;13.18;31.58;100656.69;4944081;28;20400;-79
2021/03/09 11:28:38;;;;;;;;;;;;;;;13.61;31.35;100653.56;4964379;28;19914;-80
2021/03/09 11:31:23;;;;;;;;;;;;;;;13.46;31.05;100646.00;4941303;28;19914;-80
2021/03/09 11:34:08;;;;;;;;;;;;;;;13.80;31.02;100653.84;4960133;28;19914;-79
2021/03/09 11:36:53;;;;;;;;;;;;;;;13.60;30.61;100647.31;4959805;28;19936;-79
2021/03/09 11:39:37;;;;;;;;;;;;;;;13.67;30.56;100639.34;4969860;28;19914;-79
2021/03/09 11:42:22;;;;;;;;;;;;;;;13.77;30.34;100640.84;4948587;28;20381;-79
2021/03/09 11:45:07;;;;;;;;;;;;;;;14.03;29.43;100644.09;4954606;28;20385;-79
2021/03/09 11:47:51;;;;;;;;;;;;;;;13.93;29.43;100632.78;4943642;28;20388;-79
2021/03/09 11:50:37;;;;;;;;;;;;;;;14.09;28.87;100633.72;4939799;29;19915;-79
2021/03/09 11:53:22;;;;;;;;;;;;;;;14.26;28.57;100638.19;4943251;29;20292;-79
2021/03/09 11:56:08;;;;;;;;;;;;;;;14.41;28.65;100627.41;4936386;29;19914;-79
2021/03/09 11:58:53;;;;;;;;;;;;;;;14.40;28.10;100628.53;4940406;29;20374;-79
2021/03/09 12:01:38;;;;;;;;;;;;;;;14.32;28.75;100623.16;4948303;29;19919;-80
2021/03/09 12:04:23;;;;;;;;;;;;;;;14.18;28.76;100623.47;4966203;28;19915;-79
2021/03/09 12:07:08;;;;;;;;;;;;;;;14.37;29.07;100610.06;4958064;28;20376;-79
2021/03/09 12:09:53;;;;;;;;;;;;;;;14.72;29.01;100610.38;4938350;29;19915;-80
2021/03/09 12:12:37;;;;;;;;;;;;;;;14.63;28.71;100600.69;4935950;29;20382;-79
2021/03/09 12:15:22;;;;;;;;;;;;;;;14.78;29.45;100597.25;4945078;28;20293;-78
2021/03/09 12:18:06;;;;;;;;;;;;;;;14.68;28.86;100597.72;4956235;28;20297;-78
2021/03/09 12:20:51;;;;;;;;;;;;;;;14.56;28.97;100595.78;4953780;29;19918;-78
2021/03/09 12:23:35;;;;;;;;;;;;;;;15.01;28.08;100594.75;4957701;29;19914;-78
2021/03/09 12:26:20;;;;;;;;;;;;;;;14.96;28.21;100576.66;4956165;29;19918;-78
2021/03/09 12:29:05;;;;;;;;;;;;;;;14.99;28.38;100575.94;4960302;29;19922;-77
2021/03/09 12:31:49;;;;;;;;;;;;;;;15.19;27.57;100577.69;4954255;29;19914;-79
2021/03/09 12:34:34;;;;;;;;;;;;;;;14.77;28.72;100579.22;4956315;29;19915;-77
2021/03/09 12:37:18;;;;;;;;;;;;;;;14.86;28.68;100566.97;4953317;29;20505;-78
2021/03/09 12:40:03;;;;;;;;;;;;;;;14.80;27.75;100559.34;4956891;29;20297;-79
2021/03/09 12:42:48;;;;;;;;;;;;;;;15.32;28.40;100556.50;4959010;29;20385;-79
2021/03/09 12:45:33;;;;;;;;;;;;;;;15.23;28.08;100551.19;4955920;29;19914;-78
2021/03/09 12:48:18;;;;;;;;;;;;;;;15.18;28.23;100547.91;4961072;29;19919;-79
2021/03/09 12:51:03;;;;;;;;;;;;;;;15.08;28.07;100543.75;4959155;29;19914;-79
2021/03/09 12:53:48;;;;;;;;;;;;;;;15.21;27.77;100539.78;4957936;29;20373;-79
2021/03/09 12:56:32;;;;;;;;;;;;;;;15.17;27.35;100533.41;4961073;28;20285;-79
2021/03/09 12:59:16;;;;;;;;;;;;;;;15.09;27.47;100539.84;4960154;29;19915;-79
2021/03/09 13:02:01;;;;;;;;;;;;;;;15.22;27.64;100526.88;4954269;29;19922;-79
2021/03/09 13:04:45;;;;;;;;;;;;;;;15.17;27.59;100527.94;4961468;29;19914;-78
2021/03/09 13:07:30;;;;;;;;;;;;;;;15.10;27.73;100519.53;4952792;29;20073;-79
2021/03/09 13:10:16;;;;;;;;;;;;;;;14.67;28.13;100512.06;4957370;28;19922;-77
2021/03/09 13:13:00;;;;;;;;;;;;;;;15.20;27.75;100510.78;4950155;29;19922;-77
2021/03/09 13:15:44;;;;;;;;;;;;;;;15.13;28.62;100499.66;4955671;29;19914;-78
2021/03/09 13:18:29;;;;;;;;;;;;;;;15.30;27.92;100493.84;4955567;29;19914;-78
2021/03/09 13:21:15;;;;;;;;;;;;;;;15.43;28.15;100496.50;4952688;28;19914;-78
2021/03/09 13:23:59;;;;;;;;;;;;;;;15.50;27.43;100488.44;4959754;28;19915;-79
2021/03/09 13:26:44;;;;;;;;;;;;;;;15.43;27.28;100485.56;4956985;28;19919;-78
2021/03/09 13:29:28;;;;;;;;;;;;;;;15.55;27.21;100485.47;4957095;28;19914;-78
2021/03/09 13:32:13;;;;;;;;;;;;;;;15.76;27.04;100481.31;4960800;28;19918;-78
2021/03/09 13:34:57;;;;;;;;;;;;;;;15.67;27.38;100479.91;4958674;28;19914;-78
2021/03/09 13:37:43;;;;;;;;;;;;;;;15.74;27.04;100475.41;4954709;28;19914;-79
2021/03/09 13:40:28;;;;;;;;;;;;;;;15.70;27.26;100468.22;4960463;28;20309;-78
2021/03/09 13:43:13;;;;;;;;;;;;;;;15.88;26.85;100463.16;4958153;28;19914;-79
2021/03/09 13:45:58;;;;;;;;;;;;;;;15.73;27.32;100462.84;4957511;28;20293;-78
2021/03/09 13:48:43;;;;;;;;;;;;;;;15.83;27.14;100458.75;4959188;28;19918;-78
2021/03/09 13:51:28;;;;;;;;;;;;;;;15.79;26.96;100460.63;4958011;28;19914;-79
2021/03/09 13:54:13;;;;;;;;;;;;;;;15.70;27.10;100458.06;4955380;28;19914;-78
2021/03/09 13:56:57;;;;;;;;;;;;;;;15.58;27.12;100455.44;4960506;28;20373;-78
2021/03/09 13:59:43;;;;;;;;;;;;;;;15.68;26.72;100463.13;4959234;28;19914;-78
2021/03/09 14:02:27;;;;;;;;;;;;;;;15.72;26.46;100460.44;4957837;28;19915;-78
2021/03/09 14:05:12;;;;;;;;;;;;;;;15.54;27.06;100451.03;4961557;28;19914;-78
2021/03/09 14:07:56;;;;;;;;;;;;;;;15.51;27.02;100455.25;4959284;28;19919;-78
2021/03/09 14:10:41;;;;;;;;;;;;;;;15.52;26.14;100450.56;4957978;28;19922;-78
2021/03/09 14:13:26;;;;;;;;;;;;;;;15.28;26.90;100446.84;4955702;28;19918;-78
2021/03/09 14:16:10;;;;;;;;;;;;;;;14.72;27.70;100446.13;4959911;28;20388;-79
2021/03/09 14:18:55;;;;;;;;;;;;;;;15.24;27.21;100462.38;4957751;28;20393;-78
2021/03/09 14:21:40;;;;;;;;;;;;;;;15.36;27.31;100454.06;4955560;28;19914;-78
2021/03/09 14:24:25;;;;;;;;;;;;;;;15.60;27.05;100453.13;4959848;28;19914;-78
2021/03/09 14:27:10;;;;;;;;;;;;;;;15.60;27.01;100441.34;4959299;28;19918;-80
2021/03/09 14:29:57;;;;;;;;;;;;;;;15.31;27.60;100446.13;4956544;28;19922;-79
2021/03/09 14:32:42;;;;;;;;;;;;;;;15.35;27.00;100448.94;4960234;28;19914;-79
2021/03/09 14:35:27;;;;;;;;;;;;;;;15.44;26.86;100443.31;4957307;28;19915;-79
2021/03/09 14:38:11;;;;;;;;;;;;;;;15.36;27.34;100445.84;4957895;28;19919;-79
2021/03/09 14:40:55;;;;;;;;;;;;;;;15.48;26.94;100452.41;4979792;23;19922;-80
2021/03/09 14:43:40;;;;;;;;;;;;;;;15.54;26.94;100437.31;4952067;28;19923;-80
2021/03/09 14:46:24;;;;;;;;;;;;;;;14.85;28.76;100438.66;4957695;28;19915;-80
2021/03/09 14:49:09;;;;;;;;;;;;;;;14.81;29.14;100433.09;4956085;28;20344;-81
2021/03/09 14:51:55;;;;;;;;;;;;;;;14.78;28.75;100433.00;4957962;28;19922;-80
2021/03/09 14:54:42;;;;;;;;;;;;;;;14.90;28.59;100436.44;4955035;28;19914;-80
2021/03/09 14:57:27;;;;;;;;;;;;;;;14.93;29.25;100429.50;4955639;28;19915;-80
2021/03/09 15:00:14;;;;;;;;;;;;;;;15.01;29.20;100438.69;4959754;28;19918;-80
2021/03/09 15:02:59;;;;;;;;;;;;;;;14.82;28.75;100429.22;4955415;28;19914;-81
2021/03/09 15:05:44;;;;;;;;;;;;;;;14.96;28.72;100432.31;4956486;28;19914;-81
2021/03/09 15:08:28;;;;;;;;;;;;;;;14.85;29.28;100428.50;4960051;28;19918;-82
2021/03/09 15:11:16;;;;;;;;;;;;;;;14.89;28.83;100428.59;4957841;28;19918;-85
2021/03/09 15:14:01;;;;;;;;;;;;;;;14.87;28.36;100430.88;4954060;28;19915;-83
2021/03/09 15:16:46;;;;;;;;;;;;;;;14.93;28.30;100429.50;4957793;28;19914;-83
2021/03/09 15:19:30;;;;;;;;;;;;;;;15.01;28.10;100420.31;4956394;28;19914;-82
2021/03/09 15:22:16;;;;;;;;;;;;;;;14.96;28.17;100423.31;4955000;28;19914;-80
2021/03/09 15:25:00;;;;;;;;;;;;;;;15.12;28.22;100421.38;4959517;28;19915;-80